sensor_id;sensor_type;location;lat;lon;timestamp;temperature;humidity
296;DHT22;132;48.770;9.200;2024-01-07T00:00:06;6.10;1.00
296;DHT22;132;48.770;9.200;2024-01-07T00:02:53;6.00;1.00
296;DHT22;132;48.770;9.200;2024-01-07T00:05:40;6.00;1.00
296;DHT22;132;48.770;9.200;2024-01-07T00:08:26;6.00;1.00
296;DHT22;132;48.770;9.200;2024-01-07T00:11:13;5.90;1.00
296;DHT22;132;48.770;9.200;2024-01-07T00:14:00;6.80;1.00
296;DHT22;132;48.770;9.200;2024-01-07T00:16:47;5.90;1.00
296;DHT22;132;48.770;9.200;2024-01-07T00:19:33;6.90;1.00
296;DHT22;132;48.770;9.200;2024-01-07T00:22:22;6.80;1.00
296;DHT22;132;48.770;9.200;2024-01-07T00:25:08;6.00;1.00
296;DHT22;132;48.770;9.200;2024-01-07T00:27:55;6.00;1.00
296;DHT22;132;48.770;9.200;2024-01-07T00:30:41;6.00;1.00
296;DHT22;132;48.770;9.200;2024-01-07T00:33:29;6.00;1.00
296;DHT22;132;48.770;9.200;2024-01-07T00:36:16;6.00;1.00
296;DHT22;132;48.770;9.200;2024-01-07T00:39:03;5.90;1.00
296;DHT22;132;48.770;9.200;2024-01-07T00:41:49;5.90;1.00
296;DHT22;132;48.770;9.200;2024-01-07T00:44:37;6.00;1.00
296;DHT22;132;48.770;9.200;2024-01-07T00:47:24;6.00;1.00
296;DHT22;132;48.770;9.200;2024-01-07T00:50:10;7.00;1.00
296;DHT22;132;48.770;9.200;2024-01-07T00:52:57;7.10;1.00
296;DHT22;132;48.770;9.200;2024-01-07T00:55:44;6.50;1.00
296;DHT22;132;48.770;9.200;2024-01-07T00:58:30;6.00;1.00
296;DHT22;132;48.770;9.200;2024-01-07T01:01:18;6.00;1.00
296;DHT22;132;48.770;9.200;2024-01-07T01:04:04;6.00;1.00
296;DHT22;132;48.770;9.200;2024-01-07T01:06:51;6.00;1.00
296;DHT22;132;48.770;9.200;2024-01-07T01:09:37;7.20;1.00
296;DHT22;132;48.770;9.200;2024-01-07T01:12:25;6.00;1.00
296;DHT22;132;48.770;9.200;2024-01-07T01:15:11;6.30;1.00
296;DHT22;132;48.770;9.200;2024-01-07T01:17:59;7.10;1.00
296;DHT22;132;48.770;9.200;2024-01-07T01:20:45;5.90;1.00
296;DHT22;132;48.770;9.200;2024-01-07T01:23:32;5.90;1.00
296;DHT22;132;48.770;9.200;2024-01-07T01:26:19;5.90;1.00
296;DHT22;132;48.770;9.200;2024-01-07T01:29:05;6.10;1.00
296;DHT22;132;48.770;9.200;2024-01-07T01:31:52;6.10;1.00
296;DHT22;132;48.770;9.200;2024-01-07T01:34:40;5.90;1.00
296;DHT22;132;48.770;9.200;2024-01-07T01:37:27;5.90;1.00
296;DHT22;132;48.770;9.200;2024-01-07T01:40:17;5.90;1.00
296;DHT22;132;48.770;9.200;2024-01-07T01:43:03;5.80;1.00
296;DHT22;132;48.770;9.200;2024-01-07T01:45:51;6.00;1.00
296;DHT22;132;48.770;9.200;2024-01-07T01:48:38;5.90;1.00
296;DHT22;132;48.770;9.200;2024-01-07T01:51:25;5.80;1.00
296;DHT22;132;48.770;9.200;2024-01-07T01:54:12;5.80;1.00
296;DHT22;132;48.770;9.200;2024-01-07T01:56:59;5.80;1.00
296;DHT22;132;48.770;9.200;2024-01-07T01:59:46;5.80;1.00
296;DHT22;132;48.770;9.200;2024-01-07T02:02:33;5.80;1.00
296;DHT22;132;48.770;9.200;2024-01-07T02:05:23;6.90;1.00
296;DHT22;132;48.770;9.200;2024-01-07T02:08:10;5.70;1.00
296;DHT22;132;48.770;9.200;2024-01-07T02:10:56;5.80;1.00
296;DHT22;132;48.770;9.200;2024-01-07T02:13:43;5.80;1.00
296;DHT22;132;48.770;9.200;2024-01-07T02:16:30;6.90;1.00
296;DHT22;132;48.770;9.200;2024-01-07T02:19:18;5.80;1.00
296;DHT22;132;48.770;9.200;2024-01-07T02:22:05;5.90;1.00
296;DHT22;132;48.770;9.200;2024-01-07T02:24:52;5.80;1.00
296;DHT22;132;48.770;9.200;2024-01-07T02:27:38;5.80;1.00
296;DHT22;132;48.770;9.200;2024-01-07T02:30:25;5.80;1.00
296;DHT22;132;48.770;9.200;2024-01-07T02:33:13;7.10;1.00
296;DHT22;132;48.770;9.200;2024-01-07T02:36:00;5.80;1.00
296;DHT22;132;48.770;9.200;2024-01-07T02:38:46;5.80;1.00
296;DHT22;132;48.770;9.200;2024-01-07T02:41:33;5.80;1.00
296;DHT22;132;48.770;9.200;2024-01-07T02:44:19;5.80;1.00
296;DHT22;132;48.770;9.200;2024-01-07T02:47:06;5.80;1.00
296;DHT22;132;48.770;9.200;2024-01-07T02:49:53;7.40;1.00
296;DHT22;132;48.770;9.200;2024-01-07T02:52:39;5.90;1.00
296;DHT22;132;48.770;9.200;2024-01-07T02:55:26;5.90;1.00
296;DHT22;132;48.770;9.200;2024-01-07T02:58:12;5.90;1.00
296;DHT22;132;48.770;9.200;2024-01-07T03:00:59;5.90;1.00
296;DHT22;132;48.770;9.200;2024-01-07T03:03:46;5.90;1.00
296;DHT22;132;48.770;9.200;2024-01-07T03:06:33;6.50;1.00
296;DHT22;132;48.770;9.200;2024-01-07T03:09:20;5.90;1.00
296;DHT22;132;48.770;9.200;2024-01-07T03:12:07;6.00;1.00
296;DHT22;132;48.770;9.200;2024-01-07T03:14:53;5.90;1.00
296;DHT22;132;48.770;9.200;2024-01-07T03:17:40;5.90;1.00
296;DHT22;132;48.770;9.200;2024-01-07T03:20:27;5.90;1.00
296;DHT22;132;48.770;9.200;2024-01-07T03:23:13;5.90;1.00
296;DHT22;132;48.770;9.200;2024-01-07T03:26:00;5.90;1.00
296;DHT22;132;48.770;9.200;2024-01-07T03:28:47;7.20;1.00
296;DHT22;132;48.770;9.200;2024-01-07T03:31:33;6.80;1.00
296;DHT22;132;48.770;9.200;2024-01-07T03:34:20;5.80;1.00
296;DHT22;132;48.770;9.200;2024-01-07T03:37:07;5.80;1.00
296;DHT22;132;48.770;9.200;2024-01-07T03:39:53;5.80;1.00
296;DHT22;132;48.770;9.200;2024-01-07T03:42:40;6.40;1.00
296;DHT22;132;48.770;9.200;2024-01-07T03:45:26;7.40;1.00
296;DHT22;132;48.770;9.200;2024-01-07T03:48:13;5.80;1.00
296;DHT22;132;48.770;9.200;2024-01-07T03:51:00;7.30;1.00
296;DHT22;132;48.770;9.200;2024-01-07T03:53:46;5.80;1.00
296;DHT22;132;48.770;9.200;2024-01-07T03:56:33;5.80;1.00
296;DHT22;132;48.770;9.200;2024-01-07T03:59:22;6.00;1.00
296;DHT22;132;48.770;9.200;2024-01-07T04:02:11;5.80;1.00
296;DHT22;132;48.770;9.200;2024-01-07T04:04:58;5.80;1.00
296;DHT22;132;48.770;9.200;2024-01-07T04:07:44;5.80;1.00
296;DHT22;132;48.770;9.200;2024-01-07T04:10:31;6.40;1.00
296;DHT22;132;48.770;9.200;2024-01-07T04:13:18;5.80;1.00
296;DHT22;132;48.770;9.200;2024-01-07T04:16:04;6.80;1.00
296;DHT22;132;48.770;9.200;2024-01-07T04:18:51;6.60;1.00
296;DHT22;132;48.770;9.200;2024-01-07T04:21:38;6.00;1.00
296;DHT22;132;48.770;9.200;2024-01-07T04:24:24;5.90;1.00
296;DHT22;132;48.770;9.200;2024-01-07T04:27:11;5.70;1.00
296;DHT22;132;48.770;9.200;2024-01-07T04:29:57;6.10;1.00
296;DHT22;132;48.770;9.200;2024-01-07T04:32:44;6.60;1.00
296;DHT22;132;48.770;9.200;2024-01-07T04:35:31;6.00;1.00
296;DHT22;132;48.770;9.200;2024-01-07T04:38:17;6.40;1.00
296;DHT22;132;48.770;9.200;2024-01-07T04:41:04;5.70;1.00
296;DHT22;132;48.770;9.200;2024-01-07T04:43:53;5.80;1.00
296;DHT22;132;48.770;9.200;2024-01-07T04:46:40;5.80;1.00
296;DHT22;132;48.770;9.200;2024-01-07T04:49:26;7.30;1.00
296;DHT22;132;48.770;9.200;2024-01-07T04:52:13;6.30;1.00
296;DHT22;132;48.770;9.200;2024-01-07T04:54:59;5.70;1.00
296;DHT22;132;48.770;9.200;2024-01-07T04:57:46;6.70;1.00
296;DHT22;132;48.770;9.200;2024-01-07T05:00:33;5.70;1.00
296;DHT22;132;48.770;9.200;2024-01-07T05:03:19;5.60;1.00
296;DHT22;132;48.770;9.200;2024-01-07T05:06:08;5.60;1.00
296;DHT22;132;48.770;9.200;2024-01-07T05:08:55;6.50;1.00
296;DHT22;132;48.770;9.200;2024-01-07T05:11:42;5.50;1.00
296;DHT22;132;48.770;9.200;2024-01-07T05:14:28;5.60;1.00
296;DHT22;132;48.770;9.200;2024-01-07T05:17:15;5.50;1.00
296;DHT22;132;48.770;9.200;2024-01-07T05:20:02;5.50;1.00
296;DHT22;132;48.770;9.200;2024-01-07T05:22:48;5.60;1.00
296;DHT22;132;48.770;9.200;2024-01-07T05:25:35;5.60;1.00
296;DHT22;132;48.770;9.200;2024-01-07T05:28:21;5.50;1.00
296;DHT22;132;48.770;9.200;2024-01-07T05:31:18;5.50;1.00
296;DHT22;132;48.770;9.200;2024-01-07T05:34:05;5.50;1.00
296;DHT22;132;48.770;9.200;2024-01-07T05:36:52;5.50;1.00
296;DHT22;132;48.770;9.200;2024-01-07T05:39:38;4.20;1.00
296;DHT22;132;48.770;9.200;2024-01-07T05:42:25;6.30;1.00
296;DHT22;132;48.770;9.200;2024-01-07T05:45:12;5.90;1.00
296;DHT22;132;48.770;9.200;2024-01-07T05:47:58;5.50;1.00
296;DHT22;132;48.770;9.200;2024-01-07T05:50:45;5.50;1.00
296;DHT22;132;48.770;9.200;2024-01-07T05:53:31;6.30;1.00
296;DHT22;132;48.770;9.200;2024-01-07T05:56:18;6.50;1.00
296;DHT22;132;48.770;9.200;2024-01-07T05:59:05;5.50;1.00
296;DHT22;132;48.770;9.200;2024-01-07T06:01:58;6.90;1.00
296;DHT22;132;48.770;9.200;2024-01-07T06:04:44;5.50;1.00
296;DHT22;132;48.770;9.200;2024-01-07T06:07:31;5.50;1.00
296;DHT22;132;48.770;9.200;2024-01-07T06:10:17;5.50;1.00
296;DHT22;132;48.770;9.200;2024-01-07T06:13:04;5.50;1.00
296;DHT22;132;48.770;9.200;2024-01-07T06:15:52;5.50;1.00
296;DHT22;132;48.770;9.200;2024-01-07T06:18:40;5.50;1.00
296;DHT22;132;48.770;9.200;2024-01-07T06:21:26;6.70;1.00
296;DHT22;132;48.770;9.200;2024-01-07T06:24:13;5.40;1.00
296;DHT22;132;48.770;9.200;2024-01-07T06:26:59;5.50;1.00
296;DHT22;132;48.770;9.200;2024-01-07T06:29:46;5.50;1.00
296;DHT22;132;48.770;9.200;2024-01-07T06:32:33;6.70;1.00
296;DHT22;132;48.770;9.200;2024-01-07T06:35:20;6.70;1.00
296;DHT22;132;48.770;9.200;2024-01-07T06:38:07;5.50;1.00
296;DHT22;132;48.770;9.200;2024-01-07T06:40:53;5.50;1.00
296;DHT22;132;48.770;9.200;2024-01-07T06:43:41;5.50;1.00
296;DHT22;132;48.770;9.200;2024-01-07T06:46:28;6.40;1.00
296;DHT22;132;48.770;9.200;2024-01-07T06:49:14;5.50;1.00
296;DHT22;132;48.770;9.200;2024-01-07T06:52:01;6.50;1.00
296;DHT22;132;48.770;9.200;2024-01-07T06:54:47;5.50;1.00
296;DHT22;132;48.770;9.200;2024-01-07T06:57:34;5.50;1.00
296;DHT22;132;48.770;9.200;2024-01-07T07:00:21;5.50;1.00
296;DHT22;132;48.770;9.200;2024-01-07T07:03:08;5.50;1.00
296;DHT22;132;48.770;9.200;2024-01-07T07:05:55;6.30;1.00
296;DHT22;132;48.770;9.200;2024-01-07T07:08:41;5.50;1.00
296;DHT22;132;48.770;9.200;2024-01-07T07:11:28;6.50;1.00
296;DHT22;132;48.770;9.200;2024-01-07T07:14:15;5.50;1.00
296;DHT22;132;48.770;9.200;2024-01-07T07:17:01;5.50;1.00
296;DHT22;132;48.770;9.200;2024-01-07T07:19:48;5.40;1.00
296;DHT22;132;48.770;9.200;2024-01-07T07:22:35;5.40;1.00
296;DHT22;132;48.770;9.200;2024-01-07T07:25:21;5.40;1.00
296;DHT22;132;48.770;9.200;2024-01-07T07:28:08;5.30;1.00
296;DHT22;132;48.770;9.200;2024-01-07T07:30:54;6.50;1.00
296;DHT22;132;48.770;9.200;2024-01-07T07:33:41;5.30;1.00
296;DHT22;132;48.770;9.200;2024-01-07T07:36:28;5.20;1.00
296;DHT22;132;48.770;9.200;2024-01-07T07:39:14;5.20;1.00
296;DHT22;132;48.770;9.200;2024-01-07T07:42:02;5.50;1.00
296;DHT22;132;48.770;9.200;2024-01-07T07:44:48;5.20;1.00
296;DHT22;132;48.770;9.200;2024-01-07T07:47:35;5.10;1.00
296;DHT22;132;48.770;9.200;2024-01-07T07:50:22;5.20;1.00
296;DHT22;132;48.770;9.200;2024-01-07T07:53:09;5.10;1.00
296;DHT22;132;48.770;9.200;2024-01-07T07:55:55;5.00;1.00
296;DHT22;132;48.770;9.200;2024-01-07T07:58:42;5.00;1.00
296;DHT22;132;48.770;9.200;2024-01-07T08:01:29;5.00;1.00
296;DHT22;132;48.770;9.200;2024-01-07T08:04:15;5.50;1.00
296;DHT22;132;48.770;9.200;2024-01-07T08:07:02;4.90;1.00
296;DHT22;132;48.770;9.200;2024-01-07T08:09:49;4.90;1.00
296;DHT22;132;48.770;9.200;2024-01-07T08:12:35;4.90;1.00
296;DHT22;132;48.770;9.200;2024-01-07T08:15:22;6.20;1.00
296;DHT22;132;48.770;9.200;2024-01-07T08:18:09;4.90;1.00
296;DHT22;132;48.770;9.200;2024-01-07T08:20:56;4.90;1.00
296;DHT22;132;48.770;9.200;2024-01-07T08:23:42;4.90;1.00
296;DHT22;132;48.770;9.200;2024-01-07T08:26:29;4.80;1.00
296;DHT22;132;48.770;9.200;2024-01-07T08:29:15;5.40;1.00
296;DHT22;132;48.770;9.200;2024-01-07T08:32:02;6.40;1.00
296;DHT22;132;48.770;9.200;2024-01-07T08:34:49;4.80;1.00
296;DHT22;132;48.770;9.200;2024-01-07T08:37:36;4.80;1.00
296;DHT22;132;48.770;9.200;2024-01-07T08:40:22;4.80;1.00
296;DHT22;132;48.770;9.200;2024-01-07T08:43:09;4.70;1.00
296;DHT22;132;48.770;9.200;2024-01-07T08:45:56;4.80;1.00
296;DHT22;132;48.770;9.200;2024-01-07T08:48:42;4.70;1.00
296;DHT22;132;48.770;9.200;2024-01-07T08:51:29;5.40;1.00
296;DHT22;132;48.770;9.200;2024-01-07T08:54:15;4.70;1.00
296;DHT22;132;48.770;9.200;2024-01-07T08:57:02;4.70;1.00
296;DHT22;132;48.770;9.200;2024-01-07T08:59:49;4.70;1.00
296;DHT22;132;48.770;9.200;2024-01-07T09:02:36;4.70;1.00
296;DHT22;132;48.770;9.200;2024-01-07T09:05:23;4.70;1.00
296;DHT22;132;48.770;9.200;2024-01-07T09:08:10;5.50;1.00
296;DHT22;132;48.770;9.200;2024-01-07T09:11:00;4.70;1.00
296;DHT22;132;48.770;9.200;2024-01-07T09:13:48;4.70;1.00
296;DHT22;132;48.770;9.200;2024-01-07T09:16:35;5.40;1.00
296;DHT22;132;48.770;9.200;2024-01-07T09:19:21;5.30;1.00
296;DHT22;132;48.770;9.200;2024-01-07T09:22:08;5.60;1.00
296;DHT22;132;48.770;9.200;2024-01-07T09:24:55;5.80;1.00
296;DHT22;132;48.770;9.200;2024-01-07T09:27:42;5.80;1.00
296;DHT22;132;48.770;9.200;2024-01-07T09:30:30;4.60;1.00
296;DHT22;132;48.770;9.200;2024-01-07T09:33:16;5.40;1.00
296;DHT22;132;48.770;9.200;2024-01-07T09:36:03;4.60;1.00
296;DHT22;132;48.770;9.200;2024-01-07T09:38:50;4.70;1.00
296;DHT22;132;48.770;9.200;2024-01-07T09:41:36;4.60;1.00
296;DHT22;132;48.770;9.200;2024-01-07T09:44:23;4.60;1.00
296;DHT22;132;48.770;9.200;2024-01-07T09:47:11;4.60;1.00
296;DHT22;132;48.770;9.200;2024-01-07T09:49:58;4.60;1.00
296;DHT22;132;48.770;9.200;2024-01-07T09:52:46;4.60;1.00
296;DHT22;132;48.770;9.200;2024-01-07T09:56:07;4.50;1.00
296;DHT22;132;48.770;9.200;2024-01-07T09:58:58;4.50;1.00
296;DHT22;132;48.770;9.200;2024-01-07T10:01:46;4.50;1.00
296;DHT22;132;48.770;9.200;2024-01-07T10:04:33;4.60;1.00
296;DHT22;132;48.770;9.200;2024-01-07T10:07:20;4.40;1.00
296;DHT22;132;48.770;9.200;2024-01-07T10:10:17;4.80;1.00
296;DHT22;132;48.770;9.200;2024-01-07T10:13:04;4.40;1.00
296;DHT22;132;48.770;9.200;2024-01-07T10:15:50;4.40;1.00
296;DHT22;132;48.770;9.200;2024-01-07T10:18:37;4.40;1.00
296;DHT22;132;48.770;9.200;2024-01-07T10:21:23;4.40;1.00
296;DHT22;132;48.770;9.200;2024-01-07T10:24:11;5.40;1.00
296;DHT22;132;48.770;9.200;2024-01-07T10:26:59;4.50;1.00
296;DHT22;132;48.770;9.200;2024-01-07T10:29:50;4.50;1.00
296;DHT22;132;48.770;9.200;2024-01-07T10:32:37;4.50;1.00
296;DHT22;132;48.770;9.200;2024-01-07T10:35:30;4.50;1.00
296;DHT22;132;48.770;9.200;2024-01-07T10:38:19;4.80;1.00
296;DHT22;132;48.770;9.200;2024-01-07T10:41:09;4.40;1.00
296;DHT22;132;48.770;9.200;2024-01-07T10:43:57;4.40;1.00
296;DHT22;132;48.770;9.200;2024-01-07T10:46:45;4.30;1.00
296;DHT22;132;48.770;9.200;2024-01-07T10:49:34;5.00;1.00
296;DHT22;132;48.770;9.200;2024-01-07T10:52:21;4.30;1.00
296;DHT22;132;48.770;9.200;2024-01-07T10:55:10;5.00;1.00
296;DHT22;132;48.770;9.200;2024-01-07T10:58:01;4.50;1.00
296;DHT22;132;48.770;9.200;2024-01-07T11:00:49;4.20;1.00
296;DHT22;132;48.770;9.200;2024-01-07T11:09:36;4.10;1.00
296;DHT22;132;48.770;9.200;2024-01-07T11:12:24;5.60;1.00
296;DHT22;132;48.770;9.200;2024-01-07T11:15:11;4.10;1.00
296;DHT22;132;48.770;9.200;2024-01-07T11:18:00;4.10;1.00
296;DHT22;132;48.770;9.200;2024-01-07T11:20:48;4.80;1.00
296;DHT22;132;48.770;9.200;2024-01-07T11:23:43;4.00;1.00
296;DHT22;132;48.770;9.200;2024-01-07T11:26:30;4.00;1.00
296;DHT22;132;48.770;9.200;2024-01-07T11:29:17;4.60;1.00
296;DHT22;132;48.770;9.200;2024-01-07T11:32:05;4.00;1.00
296;DHT22;132;48.770;9.200;2024-01-07T11:34:52;4.00;1.00
296;DHT22;132;48.770;9.200;2024-01-07T11:37:40;4.10;1.00
296;DHT22;132;48.770;9.200;2024-01-07T11:40:26;4.10;1.00
296;DHT22;132;48.770;9.200;2024-01-07T11:43:13;4.00;1.00
296;DHT22;132;48.770;9.200;2024-01-07T11:46:00;4.00;1.00
296;DHT22;132;48.770;9.200;2024-01-07T11:48:47;4.00;1.00
296;DHT22;132;48.770;9.200;2024-01-07T11:51:33;4.00;1.00
296;DHT22;132;48.770;9.200;2024-01-07T11:54:21;5.10;1.00
296;DHT22;132;48.770;9.200;2024-01-07T11:57:10;4.00;1.00
296;DHT22;132;48.770;9.200;2024-01-07T11:59:57;4.50;1.00
296;DHT22;132;48.770;9.200;2024-01-07T12:02:45;4.00;1.00
296;DHT22;132;48.770;9.200;2024-01-07T12:05:31;4.00;1.00
296;DHT22;132;48.770;9.200;2024-01-07T12:08:18;4.00;1.00
296;DHT22;132;48.770;9.200;2024-01-07T12:11:06;4.90;1.00
296;DHT22;132;48.770;9.200;2024-01-07T12:13:53;3.90;1.00
296;DHT22;132;48.770;9.200;2024-01-07T12:16:41;3.90;1.00
296;DHT22;132;48.770;9.200;2024-01-07T12:19:28;4.90;1.00
296;DHT22;132;48.770;9.200;2024-01-07T12:22:17;3.90;1.00
296;DHT22;132;48.770;9.200;2024-01-07T12:25:05;3.80;1.00
296;DHT22;132;48.770;9.200;2024-01-07T12:27:53;3.80;1.00
296;DHT22;132;48.770;9.200;2024-01-07T12:30:39;3.70;1.00
296;DHT22;132;48.770;9.200;2024-01-07T12:33:26;3.70;1.00
296;DHT22;132;48.770;9.200;2024-01-07T12:36:13;3.70;1.00
296;DHT22;132;48.770;9.200;2024-01-07T12:39:01;3.70;1.00
296;DHT22;132;48.770;9.200;2024-01-07T12:41:48;3.70;1.00
296;DHT22;132;48.770;9.200;2024-01-07T12:44:38;3.70;1.00
296;DHT22;132;48.770;9.200;2024-01-07T12:47:24;3.70;1.00
296;DHT22;132;48.770;9.200;2024-01-07T12:50:12;3.70;1.00
296;DHT22;132;48.770;9.200;2024-01-07T12:52:59;3.70;1.00
296;DHT22;132;48.770;9.200;2024-01-07T12:55:45;3.70;1.00
296;DHT22;132;48.770;9.200;2024-01-07T12:58:32;3.70;1.00
296;DHT22;132;48.770;9.200;2024-01-07T13:01:19;3.60;1.00
296;DHT22;132;48.770;9.200;2024-01-07T13:04:06;3.50;1.00
296;DHT22;132;48.770;9.200;2024-01-07T13:06:53;3.40;1.00
296;DHT22;132;48.770;9.200;2024-01-07T13:09:39;3.40;1.00
296;DHT22;132;48.770;9.200;2024-01-07T13:12:26;3.70;1.00
296;DHT22;132;48.770;9.200;2024-01-07T13:15:13;4.00;1.00
296;DHT22;132;48.770;9.200;2024-01-07T13:17:59;4.60;1.00
296;DHT22;132;48.770;9.200;2024-01-07T13:20:46;3.30;1.00
296;DHT22;132;48.770;9.200;2024-01-07T13:23:33;3.20;1.00
296;DHT22;132;48.770;9.200;2024-01-07T13:26:19;3.30;1.00
296;DHT22;132;48.770;9.200;2024-01-07T13:29:06;3.20;1.00
296;DHT22;132;48.770;9.200;2024-01-07T13:31:53;3.20;1.00
296;DHT22;132;48.770;9.200;2024-01-07T13:34:40;3.20;1.00
296;DHT22;132;48.770;9.200;2024-01-07T13:37:26;3.20;1.00
296;DHT22;132;48.770;9.200;2024-01-07T13:40:13;3.20;1.00
296;DHT22;132;48.770;9.200;2024-01-07T13:43:01;3.20;1.00
296;DHT22;132;48.770;9.200;2024-01-07T13:45:47;3.10;1.00
296;DHT22;132;48.770;9.200;2024-01-07T13:48:34;3.10;1.00
296;DHT22;132;48.770;9.200;2024-01-07T13:51:21;4.90;1.00
296;DHT22;132;48.770;9.200;2024-01-07T13:54:08;3.10;1.00
296;DHT22;132;48.770;9.200;2024-01-07T13:56:56;3.00;1.00
296;DHT22;132;48.770;9.200;2024-01-07T13:59:43;3.00;1.00
296;DHT22;132;48.770;9.200;2024-01-07T14:02:30;2.90;1.00
296;DHT22;132;48.770;9.200;2024-01-07T14:05:16;2.90;1.00
296;DHT22;132;48.770;9.200;2024-01-07T14:08:03;2.80;1.00
296;DHT22;132;48.770;9.200;2024-01-07T14:10:50;2.80;1.00
296;DHT22;132;48.770;9.200;2024-01-07T14:13:36;2.90;1.00
296;DHT22;132;48.770;9.200;2024-01-07T14:16:23;2.90;1.00
296;DHT22;132;48.770;9.200;2024-01-07T14:19:10;2.80;1.00
296;DHT22;132;48.770;9.200;2024-01-07T14:21:57;2.90;1.00
296;DHT22;132;48.770;9.200;2024-01-07T14:24:43;2.80;1.00
296;DHT22;132;48.770;9.200;2024-01-07T14:27:30;2.70;1.00
296;DHT22;132;48.770;9.200;2024-01-07T14:30:17;2.70;1.00
296;DHT22;132;48.770;9.200;2024-01-07T14:33:04;2.70;1.00
296;DHT22;132;48.770;9.200;2024-01-07T14:35:50;2.60;1.00
296;DHT22;132;48.770;9.200;2024-01-07T14:38:37;2.60;1.00
296;DHT22;132;48.770;9.200;2024-01-07T14:41:24;2.50;1.00
296;DHT22;132;48.770;9.200;2024-01-07T14:44:10;2.50;1.00
296;DHT22;132;48.770;9.200;2024-01-07T14:46:57;2.50;1.00
296;DHT22;132;48.770;9.200;2024-01-07T14:49:44;2.40;1.00
296;DHT22;132;48.770;9.200;2024-01-07T14:52:30;2.50;1.00
296;DHT22;132;48.770;9.200;2024-01-07T14:55:17;2.40;1.00
296;DHT22;132;48.770;9.200;2024-01-07T14:58:04;2.40;1.00
296;DHT22;132;48.770;9.200;2024-01-07T15:00:51;2.40;1.00
296;DHT22;132;48.770;9.200;2024-01-07T15:03:37;2.40;1.00
296;DHT22;132;48.770;9.200;2024-01-07T15:06:24;2.30;1.00
296;DHT22;132;48.770;9.200;2024-01-07T15:09:11;2.30;1.00
296;DHT22;132;48.770;9.200;2024-01-07T15:11:57;2.20;1.00
296;DHT22;132;48.770;9.200;2024-01-07T15:14:45;2.20;1.00
296;DHT22;132;48.770;9.200;2024-01-07T15:17:32;2.20;1.00
296;DHT22;132;48.770;9.200;2024-01-07T15:20:19;2.10;1.00
296;DHT22;132;48.770;9.200;2024-01-07T15:23:06;2.10;1.00
296;DHT22;132;48.770;9.200;2024-01-07T15:25:52;2.10;1.00
296;DHT22;132;48.770;9.200;2024-01-07T15:28:39;3.40;1.00
296;DHT22;132;48.770;9.200;2024-01-07T15:31:26;2.00;1.00
296;DHT22;132;48.770;9.200;2024-01-07T15:34:13;2.10;1.00
296;DHT22;132;48.770;9.200;2024-01-07T15:36:59;2.00;1.00
296;DHT22;132;48.770;9.200;2024-01-07T15:39:46;2.00;1.00
296;DHT22;132;48.770;9.200;2024-01-07T15:42:32;2.00;1.00
296;DHT22;132;48.770;9.200;2024-01-07T15:45:19;2.00;1.00
296;DHT22;132;48.770;9.200;2024-01-07T15:48:06;2.00;1.00
296;DHT22;132;48.770;9.200;2024-01-07T15:50:53;2.00;1.00
296;DHT22;132;48.770;9.200;2024-01-07T15:53:39;2.00;1.00
296;DHT22;132;48.770;9.200;2024-01-07T15:56:26;2.00;1.00
296;DHT22;132;48.770;9.200;2024-01-07T15:59:12;1.90;1.00
296;DHT22;132;48.770;9.200;2024-01-07T16:01:59;1.90;1.00
296;DHT22;132;48.770;9.200;2024-01-07T16:04:46;1.90;1.00
296;DHT22;132;48.770;9.200;2024-01-07T16:07:33;1.90;1.00
296;DHT22;132;48.770;9.200;2024-01-07T16:10:20;1.90;1.00
296;DHT22;132;48.770;9.200;2024-01-07T16:13:06;1.80;1.00
296;DHT22;132;48.770;9.200;2024-01-07T16:15:53;1.80;1.00
296;DHT22;132;48.770;9.200;2024-01-07T16:18:40;1.80;1.00
296;DHT22;132;48.770;9.200;2024-01-07T16:21:26;1.80;1.00
296;DHT22;132;48.770;9.200;2024-01-07T16:24:13;1.70;1.00
296;DHT22;132;48.770;9.200;2024-01-07T16:27:00;1.80;1.00
296;DHT22;132;48.770;9.200;2024-01-07T16:29:46;1.70;1.00
296;DHT22;132;48.770;9.200;2024-01-07T16:32:33;1.70;1.00
296;DHT22;132;48.770;9.200;2024-01-07T16:35:21;1.70;1.00
296;DHT22;132;48.770;9.200;2024-01-07T16:38:08;1.60;1.00
296;DHT22;132;48.770;9.200;2024-01-07T16:40:55;1.60;1.00
296;DHT22;132;48.770;9.200;2024-01-07T16:43:42;1.50;1.00
296;DHT22;132;48.770;9.200;2024-01-07T16:46:28;1.50;1.00
296;DHT22;132;48.770;9.200;2024-01-07T16:49:15;2.70;1.00
296;DHT22;132;48.770;9.200;2024-01-07T16:52:02;1.40;1.00
296;DHT22;132;48.770;9.200;2024-01-07T16:54:49;1.40;1.00
296;DHT22;132;48.770;9.200;2024-01-07T16:57:35;2.10;1.00
296;DHT22;132;48.770;9.200;2024-01-07T17:00:23;1.40;1.00
296;DHT22;132;48.770;9.200;2024-01-07T17:03:10;1.40;1.00
296;DHT22;132;48.770;9.200;2024-01-07T17:05:57;1.30;1.00
296;DHT22;132;48.770;9.200;2024-01-07T17:08:45;1.30;1.00
296;DHT22;132;48.770;9.200;2024-01-07T17:11:32;1.30;1.00
296;DHT22;132;48.770;9.200;2024-01-07T17:14:19;1.30;1.00
296;DHT22;132;48.770;9.200;2024-01-07T17:17:06;1.30;1.00
296;DHT22;132;48.770;9.200;2024-01-07T17:19:52;1.30;1.00
296;DHT22;132;48.770;9.200;2024-01-07T17:22:40;1.30;1.00
296;DHT22;132;48.770;9.200;2024-01-07T17:25:26;1.30;1.00
296;DHT22;132;48.770;9.200;2024-01-07T17:28:13;1.30;1.00
296;DHT22;132;48.770;9.200;2024-01-07T17:31:00;1.30;1.00
296;DHT22;132;48.770;9.200;2024-01-07T17:33:46;1.40;1.00
296;DHT22;132;48.770;9.200;2024-01-07T17:36:33;1.40;1.00
296;DHT22;132;48.770;9.200;2024-01-07T17:39:20;1.40;1.00
296;DHT22;132;48.770;9.200;2024-01-07T17:42:07;1.30;1.00
296;DHT22;132;48.770;9.200;2024-01-07T17:44:54;1.30;1.00
296;DHT22;132;48.770;9.200;2024-01-07T17:47:41;1.30;1.00
296;DHT22;132;48.770;9.200;2024-01-07T17:50:28;1.30;1.00
296;DHT22;132;48.770;9.200;2024-01-07T17:53:15;2.40;1.00
296;DHT22;132;48.770;9.200;2024-01-07T17:56:01;1.30;1.00
296;DHT22;132;48.770;9.200;2024-01-07T17:58:48;1.30;1.00
296;DHT22;132;48.770;9.200;2024-01-07T18:01:35;1.20;1.00
296;DHT22;132;48.770;9.200;2024-01-07T18:04:22;2.20;1.00
296;DHT22;132;48.770;9.200;2024-01-07T18:07:09;1.30;1.00
296;DHT22;132;48.770;9.200;2024-01-07T18:09:56;1.30;1.00
296;DHT22;132;48.770;9.200;2024-01-07T18:12:43;1.20;1.00
296;DHT22;132;48.770;9.200;2024-01-07T18:15:30;1.20;1.00
296;DHT22;132;48.770;9.200;2024-01-07T18:18:17;1.20;1.00
296;DHT22;132;48.770;9.200;2024-01-07T18:21:04;1.20;1.00
296;DHT22;132;48.770;9.200;2024-01-07T18:23:51;1.20;1.00
296;DHT22;132;48.770;9.200;2024-01-07T18:26:37;1.20;1.00
296;DHT22;132;48.770;9.200;2024-01-07T18:29:25;1.20;1.00
296;DHT22;132;48.770;9.200;2024-01-07T18:32:11;1.20;1.00
296;DHT22;132;48.770;9.200;2024-01-07T18:34:58;1.10;1.00
296;DHT22;132;48.770;9.200;2024-01-07T18:37:45;1.10;1.00
296;DHT22;132;48.770;9.200;2024-01-07T18:40:36;1.00;1.00
296;DHT22;132;48.770;9.200;2024-01-07T18:43:23;1.00;1.00
296;DHT22;132;48.770;9.200;2024-01-07T18:46:10;1.00;1.00
296;DHT22;132;48.770;9.200;2024-01-07T18:48:57;1.00;1.00
296;DHT22;132;48.770;9.200;2024-01-07T18:51:44;2.10;1.00
296;DHT22;132;48.770;9.200;2024-01-07T18:54:32;1.00;1.00
296;DHT22;132;48.770;9.200;2024-01-07T18:57:19;1.00;1.00
296;DHT22;132;48.770;9.200;2024-01-07T19:00:07;1.00;1.00
296;DHT22;132;48.770;9.200;2024-01-07T19:02:53;1.00;1.00
296;DHT22;132;48.770;9.200;2024-01-07T19:05:41;0.90;1.00
296;DHT22;132;48.770;9.200;2024-01-07T19:08:30;0.90;1.00
296;DHT22;132;48.770;9.200;2024-01-07T19:11:17;0.90;1.00
296;DHT22;132;48.770;9.200;2024-01-07T19:14:04;0.90;1.00
296;DHT22;132;48.770;9.200;2024-01-07T19:16:50;0.80;1.00
296;DHT22;132;48.770;9.200;2024-01-07T19:19:37;0.80;1.00
296;DHT22;132;48.770;9.200;2024-01-07T19:22:24;0.80;1.00
296;DHT22;132;48.770;9.200;2024-01-07T19:25:12;0.80;1.00
296;DHT22;132;48.770;9.200;2024-01-07T19:27:59;0.80;1.00
296;DHT22;132;48.770;9.200;2024-01-07T19:30:46;0.80;1.00